Terminal Aerodrome Forecast
Issued by NWS

Home | Current Version | Previous Version | Text Only | Print | Product List | Glossary On
Versions: 1 2 3 4 5 6 7 8 9 10 11 12 13 14 15 16 17 18 19 20 21 22
105
FTUS44 KBMX 231720
TAFEET
TAF
KEET 231720Z 2318/2418 20014G20KT P6SM VCSH BKN035
     FM232000 21014G20KT 3SM -SHRA VCTS BKN040CB
      TEMPO 2320/2322 1SM TSRA BKN025CB
     FM240500 23005KT 5SM -SHRA VCTS BKN035CB
     FM240900 19005KT P6SM VCSH OVC007=

USA.gov is the U.S. government's official web portal to all federal, state and local government web resources and services.